CLX9702 UTAA-VHHH
Flight info
| Callsign | CLX9702 |
|---|---|
| Flight time | N/A |
| Altitude | 31000 |
| Route | BUR29D BUROT B114 POGON L143 RAVOB/N0490F330 L143 TISIB L141 KAMUD/K0903S1010 W186 SADAN Y1 OMBON/K0905S1070 W245 OVRAL B330 KWE W181 DUDIT A599 POU R473 SIERA |
| Aircraft | B748/H-SDE2E3FGHIJ4J5M1P2RTWXYZ/LB1D1 |
Departure
| Time | 2026-04-21 18:22 |
|---|---|
| Airport | Ashgabat International Airport (UTAA) |
Arrival
| Time | N/A |
|---|---|
| Airport | Hong Kong International Airport (VHHH) |
| Time | Latitude | Longitude | Altitude | Speed | Heading |
|---|---|---|---|---|---|
| 2026-04-21 16:58 | 37.98833 | 58.34981 | 705 ft | 0 kts | 29° |
| 2026-04-21 18:07 | 37.98833 | 58.34980 | 705 ft | 1 kts | 29° |
| 2026-04-21 18:07 | 37.98819 | 58.34971 | 705 ft | 2 kts | 29° |
| 2026-04-21 18:08 | 37.98805 | 58.34961 | 705 ft | 2 kts | 29° |
| 2026-04-21 18:08 | 37.98790 | 58.34951 | 705 ft | 2 kts | 29° |
| 2026-04-21 18:08 | 37.98776 | 58.34941 | 705 ft | 2 kts | 29° |
| 2026-04-21 18:08 | 37.98762 | 58.34932 | 705 ft | 2 kts | 16° |
| 2026-04-21 18:09 | 37.98746 | 58.34931 | 705 ft | 2 kts | 345° |
| 2026-04-21 18:09 | 37.98732 | 58.34940 | 705 ft | 2 kts | 314° |
| 2026-04-21 18:09 | 37.98728 | 58.34946 | 705 ft | 0 kts | 308° |
| 2026-04-21 18:14 | 37.98734 | 58.34929 | 705 ft | 4 kts | 279° |
| 2026-04-21 18:15 | 37.98718 | 58.34898 | 705 ft | 4 kts | 210° |
| 2026-04-21 18:15 | 37.98691 | 58.34881 | 705 ft | 4 kts | 195° |
| 2026-04-21 18:15 | 37.98658 | 58.34896 | 705 ft | 7 kts | 136° |
| 2026-04-21 18:15 | 37.98620 | 58.34971 | 705 ft | 13 kts | 120° |
| 2026-04-21 18:16 | 37.98564 | 58.35096 | 705 ft | 20 kts | 120° |
| 2026-04-21 18:16 | 37.98482 | 58.35278 | 705 ft | 27 kts | 119° |
| 2026-04-21 18:16 | 37.98384 | 58.35500 | 705 ft | 28 kts | 119° |
| 2026-04-21 18:16 | 37.98291 | 58.35709 | 705 ft | 26 kts | 119° |
| 2026-04-21 18:17 | 37.98204 | 58.35904 | 705 ft | 24 kts | 119° |
| 2026-04-21 18:17 | 37.98123 | 58.36086 | 705 ft | 23 kts | 119° |
| 2026-04-21 18:17 | 37.98048 | 58.36254 | 705 ft | 22 kts | 119° |
| 2026-04-21 18:17 | 37.97974 | 58.36419 | 705 ft | 21 kts | 120° |
| 2026-04-21 18:18 | 37.97904 | 58.36575 | 705 ft | 20 kts | 120° |
| 2026-04-21 18:18 | 37.97838 | 58.36724 | 705 ft | 19 kts | 119° |
| 2026-04-21 18:18 | 37.97774 | 58.36866 | 705 ft | 18 kts | 119° |
| 2026-04-21 18:18 | 37.97715 | 58.37000 | 705 ft | 17 kts | 119° |
| 2026-04-21 18:19 | 37.97658 | 58.37127 | 705 ft | 16 kts | 119° |
| 2026-04-21 18:19 | 37.97604 | 58.37248 | 705 ft | 15 kts | 119° |
| 2026-04-21 18:19 | 37.97554 | 58.37361 | 705 ft | 14 kts | 119° |
| 2026-04-21 18:19 | 37.97512 | 58.37441 | 705 ft | 9 kts | 144° |
| 2026-04-21 18:20 | 37.97454 | 58.37443 | 705 ft | 9 kts | 199° |
| 2026-04-21 18:20 | 37.97401 | 58.37412 | 705 ft | 8 kts | 207° |
| 2026-04-21 18:20 | 37.97352 | 58.37380 | 705 ft | 8 kts | 205° |
| 2026-04-21 18:20 | 37.97321 | 58.37351 | 705 ft | 5 kts | 255° |
| 2026-04-21 18:21 | 37.97331 | 58.37308 | 705 ft | 7 kts | 298° |
| 2026-04-21 18:21 | 37.97398 | 58.37157 | 705 ft | 40 kts | 299° |
| 2026-04-21 18:21 | 37.97619 | 58.36660 | 705 ft | 90 kts | 299° |
| 2026-04-21 18:21 | 37.98005 | 58.35793 | 706 ft | 136 kts | 300° |
| 2026-04-21 18:22 | 37.98541 | 58.34592 | 708 ft | 176 kts | 299° |
| 2026-04-21 18:22 | 37.99171 | 58.33196 | 970 ft | 184 kts | 300° |
| 2026-04-21 18:22 | 37.99823 | 58.31797 | 1461 ft | 185 kts | 299° |
| 2026-04-21 18:22 | 38.00453 | 58.30371 | 1958 ft | 187 kts | 298° |
| 2026-04-21 18:23 | 38.01072 | 58.28918 | 2412 ft | 188 kts | 298° |
| 2026-04-21 18:23 | 38.01691 | 58.27446 | 2695 ft | 190 kts | 298° |
| 2026-04-21 18:23 | 38.02518 | 58.26141 | 2912 ft | 195 kts | 325° |
| 2026-04-21 18:23 | 38.03813 | 58.25696 | 3119 ft | 197 kts | 1° |
| 2026-04-21 18:24 | 38.05079 | 58.26340 | 3401 ft | 196 kts | 32° |
| 2026-04-21 18:24 | 38.06040 | 58.27564 | 3713 ft | 196 kts | 45° |
| 2026-04-21 18:24 | 38.06859 | 58.28959 | 3966 ft | 201 kts | 52° |
| 2026-04-21 18:24 | 38.07611 | 58.30489 | 4181 ft | 207 kts | 57° |
| 2026-04-21 18:25 | 38.08340 | 58.32099 | 4381 ft | 216 kts | 59° |
| 2026-04-21 18:25 | 38.09093 | 58.33800 | 4508 ft | 226 kts | 59° |
| 2026-04-21 18:25 | 38.09887 | 58.35561 | 4690 ft | 235 kts | 59° |
| 2026-04-21 18:25 | 38.10734 | 58.37407 | 4780 ft | 249 kts | 59° |
| 2026-04-21 18:26 | 38.11634 | 58.39339 | 4959 ft | 261 kts | 59° |
| 2026-04-21 18:26 | 38.12590 | 58.41368 | 5107 ft | 276 kts | 59° |
| 2026-04-21 18:26 | 38.13613 | 58.43521 | 5260 ft | 292 kts | 58° |
| 2026-04-21 18:26 | 38.14696 | 58.45783 | 5730 ft | 300 kts | 58° |
| 2026-04-21 18:27 | 38.15779 | 58.48040 | 6276 ft | 306 kts | 58° |
| 2026-04-21 18:27 | 38.16914 | 58.50395 | 6860 ft | 313 kts | 58° |
| 2026-04-21 18:27 | 38.18083 | 58.52817 | 7097 ft | 332 kts | 58° |
| 2026-04-21 18:27 | 38.19326 | 58.55391 | 7263 ft | 353 kts | 58° |
| 2026-04-21 18:28 | 38.20646 | 58.58123 | 7414 ft | 374 kts | 58° |
| 2026-04-21 18:28 | 38.22036 | 58.61003 | 7804 ft | 387 kts | 58° |
| 2026-04-21 18:28 | 38.23458 | 58.63947 | 8368 ft | 395 kts | 58° |
| 2026-04-21 18:28 | 38.24903 | 58.66943 | 8995 ft | 401 kts | 58° |
| 2026-04-21 18:29 | 38.26371 | 58.69988 | 9558 ft | 409 kts | 58° |
| 2026-04-21 18:29 | 38.27867 | 58.73095 | 10118 ft | 416 kts | 58° |
| 2026-04-21 18:29 | 38.29390 | 58.76262 | 10634 ft | 424 kts | 58° |
| 2026-04-21 18:29 | 38.30938 | 58.79484 | 11204 ft | 431 kts | 58° |
| 2026-04-21 18:30 | 38.32491 | 58.82763 | 11775 ft | 436 kts | 59° |
| 2026-04-21 18:30 | 38.34051 | 58.86117 | 12306 ft | 442 kts | 59° |
| 2026-04-21 18:30 | 38.35642 | 58.89525 | 13022 ft | 445 kts | 59° |
| 2026-04-21 18:30 | 38.37231 | 58.92919 | 13588 ft | 449 kts | 59° |
| 2026-04-21 18:31 | 38.38835 | 58.96352 | 14151 ft | 454 kts | 59° |
| 2026-04-21 18:31 | 38.40453 | 58.99825 | 14760 ft | 457 kts | 59° |
| 2026-04-21 18:31 | 38.42081 | 59.03332 | 15298 ft | 462 kts | 59° |
| 2026-04-21 18:31 | 38.43713 | 59.06866 | 15856 ft | 466 kts | 60° |
| 2026-04-21 18:32 | 38.45359 | 59.10440 | 16413 ft | 469 kts | 60° |
| 2026-04-21 18:32 | 38.47006 | 59.14044 | 16921 ft | 473 kts | 60° |
| 2026-04-21 18:32 | 38.48749 | 59.17624 | 17436 ft | 478 kts | 56° |
| 2026-04-21 18:32 | 38.50677 | 59.21089 | 17949 ft | 482 kts | 54° |
| 2026-04-21 18:33 | 38.52670 | 59.24529 | 18477 ft | 485 kts | 54° |
| 2026-04-21 18:33 | 38.54662 | 59.28021 | 18962 ft | 489 kts | 54° |
| 2026-04-21 18:33 | 38.56660 | 59.31551 | 19427 ft | 493 kts | 55° |
| 2026-04-21 18:33 | 38.58679 | 59.35167 | 19896 ft | 496 kts | 57° |
| 2026-04-21 18:34 | 38.60458 | 59.38966 | 20352 ft | 499 kts | 62° |
| 2026-04-21 18:34 | 38.62055 | 59.42913 | 20813 ft | 502 kts | 65° |
| 2026-04-21 18:34 | 38.63556 | 59.46952 | 21261 ft | 506 kts | 67° |
| 2026-04-21 18:34 | 38.65036 | 59.51048 | 21688 ft | 509 kts | 67° |
| 2026-04-21 18:35 | 38.66027 | 59.53765 | 21964 ft | 512 kts | 67° |
| 2026-04-21 18:35 | 38.68063 | 59.59291 | 22546 ft | 516 kts | 67° |
| 2026-04-21 18:35 | 38.69605 | 59.63453 | 22952 ft | 520 kts | 67° |
| 2026-04-21 18:35 | 38.71162 | 59.67645 | 23348 ft | 524 kts | 67° |
| 2026-04-21 18:36 | 38.72730 | 59.71867 | 23752 ft | 527 kts | 67° |
| 2026-04-21 18:36 | 38.74310 | 59.76117 | 24155 ft | 531 kts | 67° |
| 2026-04-21 18:36 | 38.75929 | 59.80382 | 24503 ft | 535 kts | 66° |
| 2026-04-21 18:36 | 38.77575 | 59.84735 | 24839 ft | 539 kts | 67° |
| 2026-04-21 18:37 | 38.79205 | 59.89078 | 25152 ft | 544 kts | 67° |
| 2026-04-21 18:37 | 38.80840 | 59.93456 | 25480 ft | 547 kts | 67° |
| 2026-04-21 18:37 | 38.82479 | 59.97861 | 25796 ft | 550 kts | 67° |
| 2026-04-21 18:37 | 38.84128 | 60.02302 | 26125 ft | 553 kts | 67° |
| 2026-04-21 18:38 | 38.85221 | 60.05249 | 26303 ft | 556 kts | 67° |
| 2026-04-21 18:38 | 38.87445 | 60.11260 | 26694 ft | 559 kts | 67° |
| 2026-04-21 18:38 | 38.89107 | 60.15761 | 27094 ft | 559 kts | 67° |
| 2026-04-21 18:38 | 38.90769 | 60.20265 | 27553 ft | 558 kts | 67° |
| 2026-04-21 18:39 | 38.92422 | 60.24756 | 27922 ft | 558 kts | 68° |
| 2026-04-21 18:39 | 38.94077 | 60.29259 | 28230 ft | 559 kts | 68° |
| 2026-04-21 18:39 | 38.95198 | 60.32312 | 28432 ft | 560 kts | 68° |
| 2026-04-21 18:39 | 38.97390 | 60.38291 | 28867 ft | 560 kts | 68° |
| 2026-04-21 18:40 | 38.98506 | 60.41341 | 29096 ft | 559 kts | 68° |
| 2026-04-21 18:40 | 39.00156 | 60.45855 | 29388 ft | 559 kts | 68° |
| 2026-04-21 18:40 | 39.01806 | 60.50375 | 29663 ft | 559 kts | 68° |
| 2026-04-21 18:40 | 39.03457 | 60.54903 | 29930 ft | 559 kts | 68° |
| 2026-04-21 18:41 | 39.05123 | 60.59407 | 30214 ft | 559 kts | 68° |
| 2026-04-21 18:41 | 39.06774 | 60.63919 | 30485 ft | 558 kts | 68° |
| 2026-04-21 18:41 | 39.08409 | 60.68433 | 30727 ft | 558 kts | 68° |
| 2026-04-21 18:41 | 39.10043 | 60.72965 | 30838 ft | 559 kts | 68° |
| 2026-04-21 18:42 | 39.11672 | 60.77493 | 30858 ft | 558 kts | 68° |
| 2026-04-21 18:42 | 39.14950 | 60.86617 | 30874 ft | 558 kts | 68° |
| 2026-04-21 18:43 | 39.18214 | 60.95678 | 30872 ft | 558 kts | 67° |
| 2026-04-21 18:43 | 39.21627 | 61.04647 | 30872 ft | 557 kts | 66° |
| 2026-04-21 18:44 | 39.25014 | 61.13599 | 30871 ft | 556 kts | 67° |
| 2026-04-21 18:44 | 39.28380 | 61.22561 | 30870 ft | 556 kts | 67° |
| 2026-04-21 18:45 | 39.31733 | 61.31527 | 30870 ft | 555 kts | 67° |
| 2026-04-21 18:45 | 39.35087 | 61.40553 | 30869 ft | 554 kts | 68° |
| 2026-04-21 18:46 | 39.38194 | 61.49628 | 30868 ft | 552 kts | 69° |
| 2026-04-21 18:46 | 39.41314 | 61.58692 | 30867 ft | 552 kts | 69° |
| 2026-04-21 18:47 | 39.44433 | 61.67729 | 30867 ft | 551 kts | 69° |
| 2026-04-21 18:47 | 39.47545 | 61.76761 | 30867 ft | 551 kts | 69° |
| 2026-04-21 18:48 | 39.50653 | 61.85807 | 30831 ft | 550 kts | 69° |
| 2026-04-21 18:48 | 39.53744 | 61.94830 | 30817 ft | 549 kts | 69° |
| 2026-04-21 18:49 | 39.56847 | 62.03918 | 30814 ft | 548 kts | 69° |
| 2026-04-21 18:49 | 39.59391 | 62.11388 | 30812 ft | 548 kts | 69° |
| 2026-04-21 18:50 | 39.62970 | 62.21936 | 30811 ft | 548 kts | 69° |
| 2026-04-21 18:50 | 39.66026 | 62.30967 | 30809 ft | 548 kts | 69° |
| 2026-04-21 18:51 | 39.69109 | 62.40068 | 30807 ft | 548 kts | 68° |
| 2026-04-21 18:51 | 39.72175 | 62.49120 | 30806 ft | 549 kts | 69° |
| 2026-04-21 18:52 | 39.75206 | 62.58209 | 30804 ft | 549 kts | 69° |
| 2026-04-21 18:52 | 39.78229 | 62.67308 | 30804 ft | 549 kts | 69° |
| 2026-04-21 18:53 | 39.81148 | 62.76464 | 30803 ft | 549 kts | 74° |
| 2026-04-21 18:53 | 39.83189 | 62.85984 | 30802 ft | 547 kts | 80° |
| 2026-04-21 18:54 | 39.84894 | 62.95605 | 30800 ft | 546 kts | 80° |
| 2026-04-21 18:54 | 39.86673 | 63.05275 | 30799 ft | 547 kts | 79° |
| 2026-04-21 18:55 | 39.88158 | 63.13265 | 30798 ft | 548 kts | 79° |
| 2026-04-21 18:55 | 39.90283 | 63.24511 | 30797 ft | 548 kts | 79° |
| 2026-04-21 18:56 | 39.92139 | 63.34126 | 30798 ft | 549 kts | 79° |
| 2026-04-21 18:56 | 39.93930 | 63.43774 | 30797 ft | 548 kts | 79° |
| 2026-04-21 18:57 | 39.95692 | 63.53417 | 30797 ft | 548 kts | 80° |
| 2026-04-21 18:57 | 39.97462 | 63.63138 | 30796 ft | 548 kts | 79° |
| 2026-04-21 18:58 | 39.99222 | 63.72810 | 30797 ft | 549 kts | 79° |
| 2026-04-21 18:58 | 40.00969 | 63.82482 | 30797 ft | 549 kts | 80° |
| 2026-04-21 18:59 | 40.02702 | 63.92163 | 30797 ft | 549 kts | 80° |
| 2026-04-21 18:59 | 40.04425 | 64.01854 | 30798 ft | 549 kts | 80° |
| 2026-04-21 19:00 | 40.06139 | 64.11536 | 30799 ft | 549 kts | 80° |
| 2026-04-21 19:00 | 40.07917 | 64.21279 | 30799 ft | 549 kts | 79° |
| 2026-04-21 19:01 | 40.09661 | 64.30961 | 30801 ft | 549 kts | 80° |
| 2026-04-21 19:01 | 40.11379 | 64.40661 | 30802 ft | 549 kts | 80° |
| 2026-04-21 19:02 | 40.13083 | 64.50356 | 30803 ft | 548 kts | 80° |
| 2026-04-21 19:02 | 40.14776 | 64.60055 | 30804 ft | 548 kts | 80° |
| 2026-04-21 19:03 | 40.16459 | 64.69743 | 30805 ft | 547 kts | 80° |
| 2026-04-21 19:03 | 40.18135 | 64.79446 | 30807 ft | 548 kts | 80° |
| 2026-04-21 19:04 | 40.19813 | 64.89208 | 30808 ft | 548 kts | 80° |
| 2026-04-21 19:04 | 40.21474 | 64.98926 | 30809 ft | 548 kts | 80° |
| 2026-04-21 19:05 | 40.23124 | 65.08631 | 30811 ft | 548 kts | 81° |
| 2026-04-21 19:05 | 40.24786 | 65.18344 | 30813 ft | 547 kts | 80° |
| 2026-04-21 19:06 | 40.26436 | 65.28044 | 30821 ft | 547 kts | 81° |
| 2026-04-21 19:06 | 40.28046 | 65.37761 | 30831 ft | 546 kts | 81° |
| 2026-04-21 19:07 | 40.29657 | 65.47535 | 30833 ft | 546 kts | 81° |
| 2026-04-21 19:07 | 40.31256 | 65.57251 | 30820 ft | 547 kts | 81° |
| 2026-04-21 19:08 | 40.32847 | 65.66971 | 30824 ft | 546 kts | 81° |
| 2026-04-21 19:08 | 40.34424 | 65.76684 | 30827 ft | 546 kts | 81° |
| 2026-04-21 19:09 | 40.36059 | 65.86397 | 30829 ft | 546 kts | 81° |
| 2026-04-21 19:09 | 40.37631 | 65.96110 | 30831 ft | 546 kts | 81° |
| 2026-04-21 19:10 | 40.39183 | 66.05850 | 30834 ft | 546 kts | 81° |
| 2026-04-21 19:10 | 40.40740 | 66.15649 | 30835 ft | 546 kts | 81° |
| 2026-04-21 19:11 | 40.42293 | 66.25397 | 30838 ft | 547 kts | 81° |
| 2026-04-21 19:11 | 40.43841 | 66.35149 | 30839 ft | 547 kts | 81° |
| 2026-04-21 19:12 | 40.45120 | 66.43265 | 30841 ft | 547 kts | 81° |
| 2026-04-21 19:12 | 40.46960 | 66.54677 | 30843 ft | 548 kts | 80° |
| 2026-04-21 19:13 | 40.48530 | 66.64470 | 30846 ft | 549 kts | 81° |
| 2026-04-21 19:13 | 40.50060 | 66.74357 | 30865 ft | 549 kts | 81° |
| 2026-04-21 19:14 | 40.51573 | 66.84188 | 30867 ft | 550 kts | 81° |
| 2026-04-21 19:14 | 40.53074 | 66.94032 | 30868 ft | 551 kts | 82° |
| 2026-04-21 19:15 | 40.54326 | 67.03949 | 30870 ft | 550 kts | 83° |
| 2026-04-21 19:15 | 40.55555 | 67.13870 | 30867 ft | 551 kts | 83° |
| 2026-04-21 19:16 | 40.56797 | 67.23797 | 30855 ft | 551 kts | 83° |
| 2026-04-21 19:16 | 40.58092 | 67.33780 | 30856 ft | 552 kts | 82° |
| 2026-04-21 19:17 | 40.59990 | 67.48702 | 30858 ft | 552 kts | 83° |
| 2026-04-21 19:17 | 40.61207 | 67.58664 | 30859 ft | 552 kts | 83° |
| 2026-04-21 19:18 | 40.62423 | 67.68631 | 30860 ft | 553 kts | 83° |
| 2026-04-21 19:18 | 40.63520 | 67.78631 | 30861 ft | 552 kts | 85° |
| 2026-04-21 19:19 | 40.64495 | 67.88644 | 30863 ft | 552 kts | 84° |
| 2026-04-21 19:19 | 40.65463 | 67.98724 | 30863 ft | 552 kts | 85° |
| 2026-04-21 19:20 | 40.66409 | 68.08742 | 30865 ft | 552 kts | 84° |
| 2026-04-21 19:20 | 40.67354 | 68.18773 | 30866 ft | 553 kts | 84° |
| 2026-04-21 19:21 | 40.68977 | 68.28646 | 30868 ft | 554 kts | 74° |
| 2026-04-21 19:21 | 40.70146 | 68.33476 | 31070 ft | 554 kts | 72° |
| 2026-04-21 19:21 | 40.71329 | 68.38300 | 31263 ft | 555 kts | 73° |
| 2026-04-21 19:22 | 40.72460 | 68.43170 | 31439 ft | 555 kts | 73° |
| 2026-04-21 19:22 | 40.73568 | 68.48027 | 31636 ft | 556 kts | 73° |
| 2026-04-21 19:22 | 40.74680 | 68.52895 | 31858 ft | 555 kts | 73° |
| 2026-04-21 19:22 | 40.75774 | 68.57771 | 32016 ft | 555 kts | 75° |
| 2026-04-21 19:23 | 40.76679 | 68.62718 | 32215 ft | 554 kts | 78° |
| 2026-04-21 19:23 | 40.77519 | 68.67747 | 32345 ft | 555 kts | 78° |
| 2026-04-21 19:23 | 40.78369 | 68.72703 | 32523 ft | 555 kts | 77° |
| 2026-04-21 19:23 | 40.79310 | 68.77636 | 32643 ft | 556 kts | 76° |
| 2026-04-21 19:24 | 40.80271 | 68.82562 | 32808 ft | 555 kts | 76° |
| 2026-04-21 19:24 | 40.81218 | 68.87491 | 32865 ft | 555 kts | 76° |
| 2026-04-21 19:24 | 40.83086 | 68.97362 | 32878 ft | 555 kts | 77° |
| 2026-04-21 19:25 | 40.84937 | 69.07242 | 32878 ft | 555 kts | 77° |
| 2026-04-21 19:25 | 40.86811 | 69.17116 | 32878 ft | 555 kts | 76° |
| 2026-04-21 19:26 | 40.88694 | 69.26992 | 32878 ft | 555 kts | 76° |
| 2026-04-21 19:26 | 40.90554 | 69.36926 | 32878 ft | 554 kts | 76° |
| 2026-04-21 19:27 | 40.92386 | 69.46798 | 32876 ft | 554 kts | 76° |
| 2026-04-21 19:27 | 40.94211 | 69.56691 | 32880 ft | 554 kts | 76° |
| 2026-04-21 19:28 | 40.96026 | 69.66584 | 32879 ft | 554 kts | 76° |
| 2026-04-21 19:28 | 40.97832 | 69.76483 | 32878 ft | 554 kts | 76° |
| 2026-04-21 19:29 | 40.99650 | 69.86381 | 32879 ft | 554 kts | 76° |
| 2026-04-21 19:29 | 41.01456 | 69.96270 | 32878 ft | 554 kts | 77° |
| 2026-04-21 19:30 | 41.03233 | 70.06254 | 32878 ft | 553 kts | 76° |
| 2026-04-21 19:30 | 41.04986 | 70.16149 | 32879 ft | 553 kts | 76° |
| 2026-04-21 19:31 | 41.06626 | 70.26077 | 32880 ft | 553 kts | 81° |
| 2026-04-21 19:31 | 41.07487 | 70.36176 | 32880 ft | 553 kts | 85° |
| 2026-04-21 19:32 | 41.08147 | 70.46303 | 32880 ft | 552 kts | 85° |
| 2026-04-21 19:32 | 41.08849 | 70.56408 | 32880 ft | 552 kts | 85° |
| 2026-04-21 19:33 | 41.09555 | 70.66528 | 32880 ft | 552 kts | 85° |
| 2026-04-21 19:33 | 41.10145 | 70.75004 | 32881 ft | 552 kts | 85° |
| 2026-04-21 19:34 | 41.10832 | 70.85118 | 32881 ft | 552 kts | 85° |
| 2026-04-21 19:34 | 41.11506 | 70.95229 | 32882 ft | 552 kts | 85° |
| 2026-04-21 19:35 | 41.12506 | 71.10480 | 32884 ft | 552 kts | 85° |
| 2026-04-21 19:36 | 41.13184 | 71.20598 | 32884 ft | 552 kts | 84° |
| 2026-04-21 19:36 | 41.13885 | 71.30717 | 32884 ft | 552 kts | 84° |
| 2026-04-21 19:37 | 41.14569 | 71.40827 | 32891 ft | 551 kts | 84° |
| 2026-04-21 19:37 | 41.15228 | 71.50947 | 32891 ft | 551 kts | 85° |
| 2026-04-21 19:38 | 41.15845 | 71.61071 | 32892 ft | 551 kts | 85° |
| 2026-04-21 19:38 | 41.16455 | 71.71195 | 32904 ft | 551 kts | 85° |
| 2026-04-21 19:39 | 41.17071 | 71.81382 | 32906 ft | 551 kts | 84° |
| 2026-04-21 19:39 | 41.17706 | 71.91509 | 32907 ft | 551 kts | 85° |
| 2026-04-21 19:40 | 41.18285 | 72.01631 | 32908 ft | 551 kts | 85° |
| 2026-04-21 19:40 | 41.18854 | 72.11762 | 32909 ft | 551 kts | 85° |
| 2026-04-21 19:41 | 41.19421 | 72.21882 | 32909 ft | 550 kts | 85° |
| 2026-04-21 19:41 | 41.20030 | 72.32022 | 32911 ft | 550 kts | 84° |
| 2026-04-21 19:42 | 41.20587 | 72.42142 | 32912 ft | 550 kts | 85° |
| 2026-04-21 19:42 | 41.21132 | 72.52258 | 32914 ft | 550 kts | 85° |
| 2026-04-21 19:43 | 41.21678 | 72.62443 | 32915 ft | 550 kts | 85° |
| 2026-04-21 19:43 | 41.22196 | 72.72574 | 32916 ft | 550 kts | 85° |
| 2026-04-21 19:44 | 41.22700 | 72.82693 | 32918 ft | 550 kts | 85° |
| 2026-04-21 19:44 | 41.23194 | 72.92825 | 32920 ft | 550 kts | 85° |
| 2026-04-21 19:45 | 41.23679 | 73.02948 | 32922 ft | 550 kts | 85° |
| 2026-04-21 19:45 | 41.24211 | 73.13065 | 32924 ft | 550 kts | 84° |
| 2026-04-21 19:46 | 41.24727 | 73.23195 | 32926 ft | 550 kts | 85° |
| 2026-04-21 19:46 | 41.25216 | 73.33395 | 32928 ft | 551 kts | 85° |
| 2026-04-21 19:47 | 41.25688 | 73.43536 | 32930 ft | 551 kts | 85° |
| 2026-04-21 19:47 | 41.26150 | 73.53682 | 32932 ft | 551 kts | 85° |
| 2026-04-21 19:48 | 41.26638 | 73.63815 | 32935 ft | 550 kts | 85° |
| 2026-04-21 19:48 | 41.27083 | 73.73939 | 32937 ft | 549 kts | 85° |
| 2026-04-21 19:49 | 41.27501 | 73.84068 | 32939 ft | 549 kts | 85° |
| 2026-04-21 19:49 | 41.27915 | 73.94258 | 32941 ft | 549 kts | 85° |
| 2026-04-21 19:50 | 41.28264 | 74.02680 | 32942 ft | 549 kts | 84° |
| 2026-04-21 19:50 | 41.29120 | 74.14469 | 32945 ft | 549 kts | 82° |
| 2026-04-21 19:51 | 41.29859 | 74.24563 | 32947 ft | 549 kts | 83° |
| 2026-04-21 19:51 | 41.30563 | 74.34650 | 32949 ft | 549 kts | 83° |
| 2026-04-21 19:52 | 41.31258 | 74.44744 | 32950 ft | 549 kts | 82° |
| 2026-04-21 19:52 | 41.32041 | 74.54821 | 32952 ft | 549 kts | 82° |
| 2026-04-21 19:53 | 41.32730 | 74.64992 | 32954 ft | 549 kts | 83° |
| 2026-04-21 19:53 | 41.33392 | 74.75098 | 32955 ft | 550 kts | 83° |
| 2026-04-21 19:54 | 41.34052 | 74.85215 | 32957 ft | 549 kts | 83° |
| 2026-04-21 19:54 | 41.34704 | 74.95329 | 32957 ft | 549 kts | 83° |
| 2026-04-21 19:55 | 41.35339 | 75.05447 | 32959 ft | 550 kts | 83° |
| 2026-04-21 19:55 | 41.35965 | 75.15581 | 32959 ft | 550 kts | 83° |
| 2026-04-21 19:56 | 41.36585 | 75.25716 | 32961 ft | 550 kts | 83° |
| 2026-04-21 19:56 | 41.37265 | 75.35899 | 32962 ft | 550 kts | 82° |
| 2026-04-21 19:57 | 41.37916 | 75.46034 | 32962 ft | 551 kts | 83° |
| 2026-04-21 19:57 | 41.38509 | 75.56191 | 32962 ft | 551 kts | 83° |
| 2026-04-21 19:58 | 41.39095 | 75.66361 | 32963 ft | 552 kts | 83° |
| 2026-04-21 19:58 | 41.39680 | 75.76533 | 32963 ft | 552 kts | 83° |
| 2026-04-21 19:59 | 41.40249 | 75.86711 | 32963 ft | 552 kts | 83° |
| 2026-04-21 19:59 | 41.40805 | 75.96959 | 32963 ft | 552 kts | 83° |
| 2026-04-21 20:00 | 41.41346 | 76.07134 | 32964 ft | 552 kts | 83° |
| 2026-04-21 20:00 | 41.41878 | 76.17318 | 32964 ft | 552 kts | 83° |
| 2026-04-21 20:01 | 41.42468 | 76.27491 | 32964 ft | 552 kts | 83° |
| 2026-04-21 20:01 | 41.43039 | 76.37678 | 32965 ft | 552 kts | 83° |
| 2026-04-21 20:02 | 41.43580 | 76.47876 | 32964 ft | 552 kts | 83° |
| 2026-04-21 20:02 | 41.44108 | 76.58129 | 32964 ft | 552 kts | 83° |
| 2026-04-21 20:03 | 41.44622 | 76.68320 | 32963 ft | 552 kts | 83° |
| 2026-04-21 20:03 | 41.45126 | 76.78511 | 32964 ft | 552 kts | 83° |
| 2026-04-21 20:04 | 41.45621 | 76.88711 | 32962 ft | 552 kts | 83° |
| 2026-04-21 20:04 | 41.46107 | 76.98905 | 32969 ft | 552 kts | 83° |
| 2026-04-21 20:05 | 41.46584 | 77.09110 | 32969 ft | 552 kts | 83° |
| 2026-04-21 20:05 | 41.47052 | 77.19313 | 32967 ft | 552 kts | 83° |
| 2026-04-21 20:06 | 41.47514 | 77.29598 | 32966 ft | 553 kts | 83° |
| 2026-04-21 20:06 | 41.47965 | 77.39827 | 32966 ft | 554 kts | 83° |
| 2026-04-21 20:07 | 41.48408 | 77.50069 | 32966 ft | 555 kts | 83° |
| 2026-04-21 20:07 | 41.48841 | 77.60329 | 32965 ft | 556 kts | 83° |
| 2026-04-21 20:08 | 41.49267 | 77.70601 | 32965 ft | 556 kts | 83° |
| 2026-04-21 20:08 | 41.49683 | 77.80882 | 32964 ft | 556 kts | 83° |
| 2026-04-21 20:09 | 41.50093 | 77.91233 | 32963 ft | 557 kts | 83° |
| 2026-04-21 20:09 | 41.50492 | 78.01538 | 32963 ft | 557 kts | 83° |
| 2026-04-21 20:10 | 41.50881 | 78.11844 | 32962 ft | 557 kts | 82° |
| 2026-04-21 20:10 | 41.51262 | 78.22151 | 32961 ft | 557 kts | 83° |
| 2026-04-21 20:11 | 41.51634 | 78.32459 | 32963 ft | 557 kts | 83° |
| 2026-04-21 20:11 | 41.52014 | 78.42750 | 32962 ft | 555 kts | 82° |
| 2026-04-21 20:12 | 41.52389 | 78.53028 | 32962 ft | 556 kts | 83° |
| 2026-04-21 20:12 | 41.52664 | 78.61650 | 32962 ft | 556 kts | 83° |
| 2026-04-21 20:13 | 41.53036 | 78.73681 | 32962 ft | 555 kts | 83° |
| 2026-04-21 20:13 | 41.52882 | 78.83972 | 32966 ft | 560 kts | 94° |
| 2026-04-21 20:14 | 41.51251 | 78.94161 | 32963 ft | 566 kts | 102° |
| 2026-04-21 20:14 | 41.49110 | 79.04268 | 32963 ft | 568 kts | 103° |
| 2026-04-21 20:15 | 41.47006 | 79.14400 | 32963 ft | 568 kts | 102° |
| 2026-04-21 20:15 | 41.44933 | 79.24554 | 32963 ft | 568 kts | 102° |
| 2026-04-21 20:16 | 41.42905 | 79.34783 | 32963 ft | 568 kts | 102° |
| 2026-04-21 20:16 | 41.40871 | 79.44946 | 32964 ft | 569 kts | 102° |
| 2026-04-21 20:17 | 41.38809 | 79.55096 | 32967 ft | 569 kts | 102° |
| 2026-04-21 20:17 | 41.36730 | 79.65255 | 33022 ft | 569 kts | 102° |
| 2026-04-21 20:18 | 41.34973 | 79.73761 | 33064 ft | 571 kts | 103° |
| 2026-04-21 20:18 | 41.31587 | 79.85166 | 33068 ft | 574 kts | 113° |
| 2026-04-21 20:19 | 41.28200 | 79.94771 | 33069 ft | 574 kts | 112° |
| 2026-04-21 20:19 | 41.24914 | 80.04489 | 33068 ft | 573 kts | 112° |
| 2026-04-21 20:20 | 41.21644 | 80.14104 | 33070 ft | 571 kts | 112° |
| 2026-04-21 20:20 | 41.18378 | 80.23686 | 33069 ft | 570 kts | 112° |
| 2026-04-21 20:21 | 41.15466 | 80.33417 | 33076 ft | 567 kts | 105° |
| 2026-04-21 20:21 | 41.13302 | 80.43446 | 33076 ft | 564 kts | 102° |
| 2026-04-21 20:22 | 41.11207 | 80.53447 | 33078 ft | 563 kts | 102° |
| 2026-04-21 20:22 | 41.07951 | 80.68433 | 33078 ft | 562 kts | 103° |
| 2026-04-21 20:23 | 41.05814 | 80.78353 | 33077 ft | 561 kts | 102° |
| 2026-04-21 20:23 | 41.03678 | 80.88274 | 33077 ft | 560 kts | 103° |
| 2026-04-21 20:24 | 41.01513 | 80.98158 | 33079 ft | 560 kts | 103° |
| 2026-04-21 20:24 | 40.99336 | 81.08020 | 33078 ft | 558 kts | 103° |
| 2026-04-21 20:25 | 40.97140 | 81.17921 | 33079 ft | 557 kts | 103° |
| 2026-04-21 20:25 | 40.94988 | 81.27736 | 33079 ft | 556 kts | 103° |
| 2026-04-21 20:26 | 40.92796 | 81.37536 | 33079 ft | 556 kts | 103° |
| 2026-04-21 20:26 | 40.90582 | 81.47309 | 33079 ft | 556 kts | 103° |
| 2026-04-21 20:27 | 40.88365 | 81.57069 | 33079 ft | 555 kts | 103° |
| 2026-04-21 20:27 | 40.86195 | 81.66840 | 33080 ft | 554 kts | 101° |
| 2026-04-21 20:28 | 40.84351 | 81.76699 | 33080 ft | 553 kts | 99° |
| 2026-04-21 20:28 | 40.82804 | 81.84945 | 33080 ft | 553 kts | 100° |
| 2026-04-21 20:29 | 40.80920 | 81.94766 | 33081 ft | 553 kts | 100° |
| 2026-04-21 20:29 | 40.79022 | 82.04565 | 33082 ft | 548 kts | 100° |
| 2026-04-21 20:30 | 40.77182 | 82.14305 | 33080 ft | 546 kts | 100° |
| 2026-04-21 20:30 | 40.75324 | 82.24058 | 33081 ft | 546 kts | 101° |
| 2026-04-21 20:31 | 40.73448 | 82.33739 | 33081 ft | 545 kts | 101° |
| 2026-04-21 20:31 | 40.71561 | 82.43395 | 33082 ft | 545 kts | 101° |
| 2026-04-21 20:32 | 40.69668 | 82.53029 | 33082 ft | 543 kts | 101° |
| 2026-04-21 20:32 | 40.67771 | 82.62635 | 33082 ft | 542 kts | 101° |
| 2026-04-21 20:33 | 40.65868 | 82.72227 | 33082 ft | 541 kts | 101° |
| 2026-04-21 20:33 | 40.63962 | 82.81783 | 33082 ft | 540 kts | 102° |
| 2026-04-21 20:34 | 40.62041 | 82.91375 | 33083 ft | 539 kts | 102° |
| 2026-04-21 20:34 | 40.60127 | 83.00881 | 33083 ft | 537 kts | 102° |
| 2026-04-21 20:35 | 40.58213 | 83.10350 | 33083 ft | 536 kts | 102° |
| 2026-04-21 20:35 | 40.56293 | 83.19798 | 33083 ft | 534 kts | 102° |
| 2026-04-21 20:36 | 40.54373 | 83.29210 | 33083 ft | 533 kts | 103° |
| 2026-04-21 20:36 | 40.52451 | 83.38587 | 33084 ft | 532 kts | 103° |
| 2026-04-21 20:37 | 40.50525 | 83.47940 | 33083 ft | 531 kts | 103° |
| 2026-04-21 20:37 | 40.48619 | 83.57350 | 33083 ft | 530 kts | 103° |
| 2026-04-21 20:38 | 40.46676 | 83.66664 | 33084 ft | 529 kts | 103° |
| 2026-04-21 20:38 | 40.44720 | 83.75962 | 33084 ft | 529 kts | 103° |
| 2026-04-21 20:39 | 40.42763 | 83.85244 | 33084 ft | 529 kts | 103° |
| 2026-04-21 20:39 | 40.40835 | 83.94520 | 33084 ft | 528 kts | 103° |
| 2026-04-21 20:40 | 40.38943 | 84.03818 | 33084 ft | 527 kts | 103° |
| 2026-04-21 20:40 | 40.37030 | 84.13130 | 33085 ft | 526 kts | 103° |
| 2026-04-21 20:41 | 40.35120 | 84.22377 | 33085 ft | 526 kts | 103° |
| 2026-04-21 20:41 | 40.33204 | 84.31609 | 33085 ft | 526 kts | 103° |
| 2026-04-21 20:42 | 40.31338 | 84.40865 | 33085 ft | 525 kts | 103° |
| 2026-04-21 20:42 | 40.29457 | 84.50083 | 33085 ft | 525 kts | 103° |
| 2026-04-21 20:43 | 40.27552 | 84.59287 | 33085 ft | 523 kts | 103° |
| 2026-04-21 20:43 | 40.25627 | 84.68515 | 33085 ft | 523 kts | 104° |
| 2026-04-21 20:44 | 40.23706 | 84.77680 | 33086 ft | 522 kts | 104° |
| 2026-04-21 20:44 | 40.21783 | 84.86810 | 33085 ft | 521 kts | 104° |
| 2026-04-21 20:45 | 40.19857 | 84.95913 | 33086 ft | 520 kts | 104° |
| 2026-04-21 20:45 | 40.17924 | 85.05012 | 33086 ft | 520 kts | 104° |
| 2026-04-21 20:46 | 40.15990 | 85.14080 | 33086 ft | 518 kts | 104° |
| 2026-04-21 20:46 | 40.14048 | 85.23142 | 33086 ft | 518 kts | 104° |
| 2026-04-21 20:47 | 40.12089 | 85.32249 | 33086 ft | 517 kts | 104° |
| 2026-04-21 20:47 | 40.10141 | 85.41268 | 33076 ft | 517 kts | 104° |
| 2026-04-21 20:48 | 40.08184 | 85.50286 | 33073 ft | 517 kts | 104° |
| 2026-04-21 20:48 | 40.06246 | 85.59302 | 33072 ft | 517 kts | 104° |
| 2026-04-21 20:49 | 40.04290 | 85.68308 | 33072 ft | 516 kts | 104° |
| 2026-04-21 20:49 | 40.02305 | 85.77279 | 33072 ft | 516 kts | 104° |
| 2026-04-21 20:50 | 40.00312 | 85.86256 | 33073 ft | 516 kts | 104° |
| 2026-04-21 20:50 | 39.98305 | 85.95284 | 33072 ft | 516 kts | 105° |
| 2026-04-21 20:51 | 39.96034 | 86.04135 | 33072 ft | 516 kts | 109° |
| 2026-04-21 20:51 | 39.93564 | 86.12911 | 33072 ft | 516 kts | 109° |
| 2026-04-21 20:52 | 39.91119 | 86.21687 | 33069 ft | 517 kts | 108° |
| 2026-04-21 20:52 | 39.88678 | 86.30474 | 33059 ft | 516 kts | 108° |
| 2026-04-21 20:53 | 39.86241 | 86.39257 | 33059 ft | 516 kts | 108° |
| 2026-04-21 20:53 | 39.83852 | 86.48113 | 33062 ft | 517 kts | 108° |
| 2026-04-21 20:54 | 39.81438 | 86.56915 | 33061 ft | 517 kts | 108° |
| 2026-04-21 20:54 | 39.79005 | 86.65707 | 33062 ft | 517 kts | 108° |
| 2026-04-21 20:55 | 39.76564 | 86.74478 | 33061 ft | 517 kts | 108° |
| 2026-04-21 20:55 | 39.74113 | 86.83248 | 33061 ft | 517 kts | 108° |
| 2026-04-21 20:56 | 39.71656 | 86.92010 | 33061 ft | 517 kts | 108° |
| 2026-04-21 20:56 | 39.69194 | 87.00756 | 33061 ft | 517 kts | 108° |
| 2026-04-21 20:57 | 39.66709 | 87.09557 | 33060 ft | 517 kts | 108° |
| 2026-04-21 20:57 | 39.64233 | 87.18293 | 33061 ft | 516 kts | 108° |
| 2026-04-21 20:58 | 39.61753 | 87.27017 | 33060 ft | 516 kts | 108° |
| 2026-04-21 20:58 | 39.59267 | 87.35730 | 33060 ft | 516 kts | 108° |
| 2026-04-21 20:59 | 39.56775 | 87.44437 | 33059 ft | 516 kts | 108° |
| 2026-04-21 20:59 | 39.54278 | 87.53129 | 33067 ft | 516 kts | 108° |
| 2026-04-21 21:00 | 39.51759 | 87.61871 | 33068 ft | 515 kts | 108° |
| 2026-04-21 21:00 | 39.49250 | 87.70551 | 33067 ft | 515 kts | 108° |
| 2026-04-21 21:01 | 39.46736 | 87.79218 | 33067 ft | 515 kts | 109° |
| 2026-04-21 21:01 | 39.44214 | 87.87885 | 33066 ft | 515 kts | 109° |
| 2026-04-21 21:02 | 39.41684 | 87.96552 | 33066 ft | 516 kts | 109° |
| 2026-04-21 21:02 | 39.39134 | 88.05257 | 33065 ft | 516 kts | 109° |
| 2026-04-21 21:03 | 39.36589 | 88.13917 | 33066 ft | 516 kts | 109° |
| 2026-04-21 21:03 | 39.34038 | 88.22570 | 33065 ft | 516 kts | 109° |
| 2026-04-21 21:04 | 39.31479 | 88.31221 | 33064 ft | 516 kts | 109° |
| 2026-04-21 21:04 | 39.28913 | 88.39869 | 33055 ft | 517 kts | 109° |
| 2026-04-21 21:05 | 39.26320 | 88.48579 | 33054 ft | 517 kts | 109° |
| 2026-04-21 21:05 | 39.23738 | 88.57225 | 33053 ft | 518 kts | 109° |
| 2026-04-21 21:06 | 39.21146 | 88.65875 | 33053 ft | 518 kts | 109° |
| 2026-04-21 21:06 | 39.18547 | 88.74523 | 33052 ft | 518 kts | 109° |
| 2026-04-21 21:07 | 39.15943 | 88.83158 | 33051 ft | 518 kts | 109° |
| 2026-04-21 21:07 | 39.13330 | 88.91796 | 33051 ft | 518 kts | 109° |
| 2026-04-21 21:08 | 39.10710 | 89.00428 | 33050 ft | 519 kts | 109° |
| 2026-04-21 21:08 | 39.08065 | 89.09116 | 33049 ft | 519 kts | 109° |
| 2026-04-21 21:09 | 39.06322 | 89.14828 | 33049 ft | 519 kts | 109° |
| 2026-04-21 21:10 | 39.00282 | 89.34526 | 33055 ft | 520 kts | 109° |
| 2026-04-21 21:10 | 38.97625 | 89.43146 | 33055 ft | 520 kts | 109° |
| 2026-04-21 21:11 | 38.94961 | 89.51762 | 33054 ft | 520 kts | 109° |
| 2026-04-21 21:11 | 38.92286 | 89.60385 | 33053 ft | 521 kts | 109° |
| 2026-04-21 21:12 | 38.89606 | 89.69000 | 33053 ft | 521 kts | 109° |
| 2026-04-21 21:12 | 38.86901 | 89.77667 | 33051 ft | 521 kts | 109° |
| 2026-04-21 21:13 | 38.84203 | 89.86286 | 33051 ft | 521 kts | 109° |
| 2026-04-21 21:13 | 38.81420 | 89.95239 | 33051 ft | 521 kts | 109° |
| 2026-04-21 21:14 | 38.78720 | 90.03836 | 33050 ft | 522 kts | 109° |
| 2026-04-21 21:14 | 38.75985 | 90.12443 | 33048 ft | 521 kts | 110° |
| 2026-04-21 21:15 | 38.73251 | 90.21028 | 33047 ft | 522 kts | 110° |
| 2026-04-21 21:15 | 38.70516 | 90.29610 | 33047 ft | 522 kts | 109° |
| 2026-04-21 21:16 | 38.67787 | 90.38263 | 33046 ft | 522 kts | 110° |
| 2026-04-21 21:16 | 38.65036 | 90.46836 | 33045 ft | 522 kts | 110° |
| 2026-04-21 21:17 | 38.62274 | 90.55404 | 33044 ft | 522 kts | 110° |
| 2026-04-21 21:17 | 38.59512 | 90.63962 | 33043 ft | 522 kts | 110° |
| 2026-04-21 21:18 | 38.56924 | 90.72590 | 33029 ft | 521 kts | 107° |
| 2026-04-21 21:18 | 38.54546 | 90.81309 | 33004 ft | 520 kts | 107° |
| 2026-04-21 21:19 | 38.52127 | 90.89986 | 33002 ft | 519 kts | 107° |
| 2026-04-21 21:19 | 38.49668 | 90.98705 | 33000 ft | 519 kts | 107° |
| 2026-04-21 21:20 | 38.47215 | 91.07365 | 32999 ft | 519 kts | 107° |
| 2026-04-21 21:20 | 38.44817 | 91.16033 | 32997 ft | 519 kts | 107° |
| 2026-04-21 21:21 | 38.42387 | 91.24674 | 32997 ft | 519 kts | 108° |
| 2026-04-21 21:21 | 38.39938 | 91.33309 | 32995 ft | 518 kts | 108° |
| 2026-04-21 21:22 | 38.37481 | 91.41928 | 32994 ft | 519 kts | 108° |
| 2026-04-21 21:22 | 38.34997 | 91.50610 | 32994 ft | 518 kts | 108° |
| 2026-04-21 21:23 | 38.32525 | 91.59221 | 32992 ft | 519 kts | 108° |
| 2026-04-21 21:23 | 38.30043 | 91.67837 | 32991 ft | 519 kts | 108° |
| 2026-04-21 21:24 | 38.27559 | 91.76436 | 32990 ft | 518 kts | 108° |
| 2026-04-21 21:24 | 38.25068 | 91.85028 | 32980 ft | 519 kts | 109° |
| 2026-04-21 21:25 | 38.22570 | 91.93620 | 32978 ft | 519 kts | 109° |
| 2026-04-21 21:25 | 38.20061 | 92.02221 | 32976 ft | 519 kts | 109° |
| 2026-04-21 21:26 | 38.17557 | 92.10870 | 32980 ft | 519 kts | 108° |
| 2026-04-21 21:26 | 38.15044 | 92.19457 | 32980 ft | 519 kts | 109° |
| 2026-04-21 21:27 | 38.12507 | 92.28026 | 32978 ft | 519 kts | 109° |
| 2026-04-21 21:27 | 38.09966 | 92.36583 | 32977 ft | 518 kts | 109° |
| 2026-04-21 21:28 | 38.07409 | 92.45125 | 32974 ft | 518 kts | 111° |
| 2026-04-21 21:29 | 38.03372 | 92.56217 | 32974 ft | 519 kts | 115° |
| 2026-04-21 21:29 | 38.00238 | 92.64438 | 32976 ft | 518 kts | 114° |
| 2026-04-21 21:30 | 37.97118 | 92.72692 | 32994 ft | 523 kts | 115° |
| 2026-04-21 21:30 | 37.93973 | 92.81016 | 32995 ft | 525 kts | 115° |
| 2026-04-21 21:31 | 37.90860 | 92.89369 | 32993 ft | 525 kts | 115° |
| 2026-04-21 21:31 | 37.87733 | 92.97767 | 32993 ft | 525 kts | 115° |
| 2026-04-21 21:32 | 37.84601 | 93.06099 | 32991 ft | 525 kts | 115° |
| 2026-04-21 21:32 | 37.81456 | 93.14422 | 32990 ft | 526 kts | 115° |
| 2026-04-21 21:33 | 37.78300 | 93.22746 | 32990 ft | 525 kts | 115° |
| 2026-04-21 21:33 | 37.75144 | 93.31046 | 33070 ft | 525 kts | 115° |
| 2026-04-21 21:34 | 37.71981 | 93.39338 | 33101 ft | 524 kts | 116° |
| 2026-04-21 21:34 | 37.68801 | 93.47657 | 33103 ft | 523 kts | 116° |
| 2026-04-21 21:35 | 37.65638 | 93.55906 | 33104 ft | 523 kts | 116° |
| 2026-04-21 21:35 | 37.62472 | 93.64142 | 33105 ft | 523 kts | 116° |
| 2026-04-21 21:36 | 37.59300 | 93.72372 | 33106 ft | 523 kts | 116° |
| 2026-04-21 21:36 | 37.56119 | 93.80601 | 33107 ft | 523 kts | 116° |
| 2026-04-21 21:37 | 37.52934 | 93.88821 | 33088 ft | 523 kts | 116° |
| 2026-04-21 21:37 | 37.49745 | 93.97031 | 33089 ft | 523 kts | 116° |
| 2026-04-21 21:38 | 37.46527 | 94.05292 | 33090 ft | 523 kts | 116° |
| 2026-04-21 21:38 | 37.43319 | 94.13506 | 33086 ft | 524 kts | 116° |
| 2026-04-21 21:39 | 37.40099 | 94.21727 | 33085 ft | 525 kts | 117° |
| 2026-04-21 21:39 | 37.36865 | 94.29965 | 33086 ft | 527 kts | 117° |
| 2026-04-21 21:40 | 37.33615 | 94.38220 | 33087 ft | 528 kts | 117° |
| 2026-04-21 21:40 | 37.30355 | 94.46478 | 33088 ft | 529 kts | 117° |
| 2026-04-21 21:41 | 37.27060 | 94.54806 | 33089 ft | 531 kts | 118° |
| 2026-04-21 21:41 | 37.23768 | 94.63103 | 33090 ft | 532 kts | 118° |
| 2026-04-21 21:42 | 37.20468 | 94.71397 | 33090 ft | 533 kts | 118° |
| 2026-04-21 21:42 | 37.17156 | 94.79700 | 33091 ft | 533 kts | 118° |
| 2026-04-21 21:43 | 37.13834 | 94.88008 | 33092 ft | 534 kts | 118° |
| 2026-04-21 21:43 | 37.10524 | 94.96263 | 33086 ft | 535 kts | 119° |
| 2026-04-21 21:44 | 37.07131 | 95.04706 | 33093 ft | 535 kts | 119° |
| 2026-04-21 21:44 | 37.03805 | 95.13030 | 33112 ft | 536 kts | 119° |
| 2026-04-21 21:45 | 37.00447 | 95.21347 | 33112 ft | 536 kts | 120° |
| 2026-04-21 21:45 | 36.97069 | 95.29651 | 33114 ft | 537 kts | 120° |
| 2026-04-21 21:46 | 36.93683 | 95.37958 | 33114 ft | 538 kts | 120° |
| 2026-04-21 21:46 | 36.90294 | 95.46289 | 33115 ft | 539 kts | 120° |
| 2026-04-21 21:47 | 36.86974 | 95.54736 | 33118 ft | 540 kts | 119° |
| 2026-04-21 21:47 | 36.83655 | 95.63143 | 33118 ft | 541 kts | 120° |
| 2026-04-21 21:48 | 36.80373 | 95.71579 | 33120 ft | 541 kts | 120° |
| 2026-04-21 21:48 | 36.77043 | 95.79981 | 33121 ft | 542 kts | 120° |
| 2026-04-21 21:49 | 36.73688 | 95.88395 | 33119 ft | 543 kts | 120° |
| 2026-04-21 21:49 | 36.70325 | 95.96814 | 33119 ft | 544 kts | 121° |
| 2026-04-21 21:50 | 36.66966 | 96.05264 | 33122 ft | 546 kts | 121° |
| 2026-04-21 21:50 | 36.63581 | 96.13788 | 33122 ft | 547 kts | 121° |
| 2026-04-21 21:51 | 36.60246 | 96.22275 | 33124 ft | 546 kts | 121° |
| 2026-04-21 21:51 | 36.56888 | 96.30750 | 33124 ft | 547 kts | 121° |
| 2026-04-21 21:52 | 36.53501 | 96.39210 | 33126 ft | 547 kts | 121° |
| 2026-04-21 21:52 | 36.50115 | 96.47649 | 33127 ft | 547 kts | 121° |
| 2026-04-21 21:53 | 36.46729 | 96.56112 | 33128 ft | 548 kts | 121° |
| 2026-04-21 21:53 | 36.43367 | 96.64653 | 33130 ft | 548 kts | 121° |
| 2026-04-21 21:54 | 36.40014 | 96.73133 | 33130 ft | 548 kts | 121° |
| 2026-04-21 21:54 | 36.36651 | 96.81611 | 33132 ft | 549 kts | 121° |
| 2026-04-21 21:55 | 36.33284 | 96.90079 | 33133 ft | 548 kts | 121° |
| 2026-04-21 21:55 | 36.29952 | 96.98562 | 33134 ft | 549 kts | 121° |
| 2026-04-21 21:56 | 36.26592 | 97.07055 | 33136 ft | 549 kts | 121° |
| 2026-04-21 21:56 | 36.23216 | 97.15527 | 33138 ft | 550 kts | 122° |
| 2026-04-21 21:57 | 36.19810 | 97.24074 | 33138 ft | 551 kts | 121° |
| 2026-04-21 21:57 | 36.16427 | 97.32566 | 33140 ft | 552 kts | 122° |
| 2026-04-21 21:58 | 36.12999 | 97.41060 | 33141 ft | 552 kts | 122° |
| 2026-04-21 21:58 | 36.09569 | 97.49537 | 33142 ft | 553 kts | 123° |
| 2026-04-21 21:59 | 36.06131 | 97.58027 | 33144 ft | 554 kts | 123° |
| 2026-04-21 21:59 | 36.02785 | 97.66614 | 33145 ft | 556 kts | 122° |
| 2026-04-21 22:00 | 35.99454 | 97.75216 | 33146 ft | 556 kts | 122° |
| 2026-04-21 22:00 | 35.96082 | 97.83868 | 33148 ft | 557 kts | 122° |
| 2026-04-21 22:01 | 35.92719 | 97.92464 | 33149 ft | 557 kts | 122° |
| 2026-04-21 22:01 | 35.89380 | 98.01080 | 33151 ft | 557 kts | 122° |
| 2026-04-21 22:02 | 35.86047 | 98.09697 | 33152 ft | 557 kts | 122° |
| 2026-04-21 22:02 | 35.82690 | 98.18295 | 33153 ft | 557 kts | 122° |
| 2026-04-21 22:03 | 35.79324 | 98.26873 | 33155 ft | 557 kts | 122° |
| 2026-04-21 22:03 | 35.75932 | 98.35486 | 33156 ft | 556 kts | 122° |
| 2026-04-21 22:04 | 35.72552 | 98.44044 | 33158 ft | 557 kts | 122° |
| 2026-04-21 22:04 | 35.69165 | 98.52599 | 33160 ft | 557 kts | 122° |
| 2026-04-21 22:05 | 35.65768 | 98.61154 | 33161 ft | 557 kts | 122° |
| 2026-04-21 22:05 | 35.62365 | 98.69702 | 33162 ft | 557 kts | 122° |
| 2026-04-21 22:06 | 35.58964 | 98.78222 | 33164 ft | 556 kts | 122° |
| 2026-04-21 22:06 | 35.55554 | 98.86742 | 33165 ft | 556 kts | 122° |
| 2026-04-21 22:07 | 35.52122 | 98.95297 | 33166 ft | 555 kts | 123° |
| 2026-04-21 22:07 | 35.48712 | 99.03773 | 33168 ft | 555 kts | 123° |
| 2026-04-21 22:08 | 35.45296 | 99.12241 | 33169 ft | 555 kts | 123° |
| 2026-04-21 22:08 | 35.41874 | 99.20704 | 33179 ft | 555 kts | 123° |
| 2026-04-21 22:09 | 35.38446 | 99.29159 | 33180 ft | 554 kts | 123° |
| 2026-04-21 22:09 | 35.35018 | 99.37594 | 33181 ft | 554 kts | 123° |
| 2026-04-21 22:10 | 35.31563 | 99.46073 | 33182 ft | 554 kts | 123° |
| 2026-04-21 22:10 | 35.28121 | 99.54499 | 33183 ft | 554 kts | 123° |
| 2026-04-21 22:11 | 35.24676 | 99.62909 | 33185 ft | 554 kts | 123° |
| 2026-04-21 22:11 | 35.21226 | 99.71311 | 33186 ft | 554 kts | 123° |
| 2026-04-21 22:12 | 35.17772 | 99.79702 | 33187 ft | 554 kts | 123° |
| 2026-04-21 22:12 | 35.14310 | 99.88089 | 33188 ft | 554 kts | 123° |
| 2026-04-21 22:13 | 35.10820 | 99.96526 | 33188 ft | 554 kts | 123° |
| 2026-04-21 22:13 | 35.07344 | 100.04906 | 33190 ft | 552 kts | 123° |
| 2026-04-21 22:14 | 35.03885 | 100.13224 | 33192 ft | 550 kts | 123° |
| 2026-04-21 22:14 | 35.00426 | 100.21522 | 33192 ft | 550 kts | 123° |
| 2026-04-21 22:15 | 34.96961 | 100.29813 | 33193 ft | 550 kts | 123° |
| 2026-04-21 22:15 | 34.93487 | 100.38106 | 33194 ft | 550 kts | 123° |
| 2026-04-21 22:16 | 34.90011 | 100.46383 | 33194 ft | 549 kts | 123° |
| 2026-04-21 22:16 | 34.86509 | 100.54701 | 33195 ft | 549 kts | 123° |
| 2026-04-21 22:17 | 34.83029 | 100.62948 | 33196 ft | 549 kts | 123° |
| 2026-04-21 22:17 | 34.79541 | 100.71191 | 33196 ft | 548 kts | 123° |
| 2026-04-21 22:18 | 34.76062 | 100.79395 | 33197 ft | 546 kts | 123° |
| 2026-04-21 22:18 | 34.72579 | 100.87587 | 33198 ft | 546 kts | 123° |
| 2026-04-21 22:19 | 34.69097 | 100.95757 | 33198 ft | 545 kts | 123° |
| 2026-04-21 22:19 | 34.65594 | 101.03958 | 33198 ft | 543 kts | 123° |
| 2026-04-21 22:20 | 34.62117 | 101.12077 | 33198 ft | 542 kts | 123° |
| 2026-04-21 22:20 | 34.58648 | 101.20162 | 33199 ft | 540 kts | 123° |
| 2026-04-21 22:21 | 34.55185 | 101.28209 | 33199 ft | 538 kts | 123° |
| 2026-04-21 22:21 | 34.51723 | 101.36238 | 33199 ft | 537 kts | 123° |
| 2026-04-21 22:22 | 34.48273 | 101.44219 | 33199 ft | 535 kts | 123° |
| 2026-04-21 22:22 | 34.45381 | 101.50896 | 33199 ft | 534 kts | 123° |
| 2026-04-21 22:23 | 34.41940 | 101.58823 | 33199 ft | 532 kts | 123° |
| 2026-04-21 22:23 | 34.38498 | 101.66734 | 33198 ft | 531 kts | 123° |
| 2026-04-21 22:24 | 34.35064 | 101.74608 | 33198 ft | 529 kts | 123° |
| 2026-04-21 22:24 | 34.31636 | 101.82452 | 33198 ft | 528 kts | 123° |
| 2026-04-21 22:25 | 34.28181 | 101.90340 | 33198 ft | 527 kts | 123° |
| 2026-04-21 22:25 | 34.24758 | 101.98157 | 33196 ft | 527 kts | 123° |
| 2026-04-21 22:26 | 34.21342 | 102.05972 | 33196 ft | 526 kts | 123° |
| 2026-04-21 22:26 | 34.17908 | 102.13752 | 33195 ft | 526 kts | 123° |
| 2026-04-21 22:27 | 34.14460 | 102.21525 | 33194 ft | 526 kts | 124° |
| 2026-04-21 22:27 | 34.11008 | 102.29288 | 33194 ft | 527 kts | 123° |
| 2026-04-21 22:28 | 34.07606 | 102.37119 | 33192 ft | 528 kts | 122° |
| 2026-04-21 22:28 | 34.04275 | 102.45060 | 33191 ft | 529 kts | 122° |
| 2026-04-21 22:29 | 34.00972 | 102.52972 | 33190 ft | 530 kts | 122° |
| 2026-04-21 22:29 | 33.97610 | 102.60855 | 33189 ft | 529 kts | 122° |
| 2026-04-21 22:30 | 33.94235 | 102.68708 | 33190 ft | 529 kts | 123° |
| 2026-04-21 22:30 | 33.90935 | 102.76615 | 33201 ft | 530 kts | 120° |
| 2026-04-21 22:31 | 33.87937 | 102.84728 | 33198 ft | 533 kts | 118° |
| 2026-04-21 22:31 | 33.84977 | 102.92957 | 33198 ft | 534 kts | 118° |
| 2026-04-21 22:32 | 33.82022 | 103.01148 | 33196 ft | 534 kts | 118° |
| 2026-04-21 22:32 | 33.79061 | 103.09331 | 33194 ft | 535 kts | 118° |
| 2026-04-21 22:33 | 33.76085 | 103.17533 | 33193 ft | 536 kts | 118° |
| 2026-04-21 22:33 | 33.73105 | 103.25729 | 33191 ft | 537 kts | 118° |
| 2026-04-21 22:34 | 33.70113 | 103.33936 | 33189 ft | 537 kts | 118° |
| 2026-04-21 22:34 | 33.67096 | 103.42193 | 33187 ft | 538 kts | 118° |
| 2026-04-21 22:35 | 33.64089 | 103.50398 | 33185 ft | 538 kts | 118° |
| 2026-04-21 22:35 | 33.61074 | 103.58609 | 33184 ft | 539 kts | 118° |
| 2026-04-21 22:36 | 33.56534 | 103.70933 | 33187 ft | 539 kts | 119° |
| 2026-04-21 22:36 | 33.53503 | 103.79135 | 33186 ft | 539 kts | 119° |
| 2026-04-21 22:37 | 33.50467 | 103.87331 | 33185 ft | 539 kts | 119° |
| 2026-04-21 22:37 | 33.47455 | 103.95545 | 33183 ft | 539 kts | 118° |
| 2026-04-21 22:38 | 33.44406 | 104.03806 | 33181 ft | 540 kts | 119° |
| 2026-04-21 22:38 | 33.41348 | 104.11999 | 33164 ft | 540 kts | 119° |
| 2026-04-21 22:39 | 33.38284 | 104.20178 | 33160 ft | 538 kts | 121° |
| 2026-04-21 22:39 | 33.36316 | 104.23911 | 33156 ft | 527 kts | 136° |
| 2026-04-21 22:39 | 33.33712 | 104.26886 | 33163 ft | 511 kts | 150° |
| 2026-04-21 22:40 | 33.27770 | 104.31332 | 33170 ft | 501 kts | 159° |
| 2026-04-21 22:40 | 33.21509 | 104.34841 | 33155 ft | 494 kts | 164° |
| 2026-04-21 22:41 | 33.15187 | 104.38103 | 33153 ft | 492 kts | 163° |
| 2026-04-21 22:41 | 33.08935 | 104.41410 | 33148 ft | 493 kts | 163° |
| 2026-04-21 22:42 | 33.02693 | 104.44757 | 33151 ft | 493 kts | 163° |
| 2026-04-21 22:42 | 32.96445 | 104.48098 | 33143 ft | 493 kts | 163° |
| 2026-04-21 22:43 | 32.90203 | 104.51414 | 33143 ft | 492 kts | 163° |
| 2026-04-21 22:43 | 32.83959 | 104.54726 | 33138 ft | 491 kts | 163° |
| 2026-04-21 22:44 | 32.77647 | 104.57855 | 33139 ft | 482 kts | 172° |
| 2026-04-21 22:44 | 32.71089 | 104.59076 | 33133 ft | 474 kts | 182° |
| 2026-04-21 22:45 | 32.64563 | 104.59418 | 33132 ft | 468 kts | 185° |
| 2026-04-21 22:45 | 32.58058 | 104.59644 | 33131 ft | 468 kts | 184° |
| 2026-04-21 22:46 | 32.51552 | 104.59929 | 33127 ft | 468 kts | 184° |
| 2026-04-21 22:46 | 32.45057 | 104.60222 | 33126 ft | 468 kts | 184° |
| 2026-04-21 22:47 | 32.38552 | 104.60524 | 33121 ft | 468 kts | 183° |
| 2026-04-21 22:47 | 32.32008 | 104.60891 | 33120 ft | 469 kts | 183° |
| 2026-04-21 22:48 | 32.25505 | 104.61248 | 33119 ft | 468 kts | 183° |
| 2026-04-21 22:48 | 32.19019 | 104.61601 | 33119 ft | 468 kts | 183° |
| 2026-04-21 22:49 | 32.12506 | 104.61955 | 33116 ft | 469 kts | 183° |
| 2026-04-21 22:49 | 32.05991 | 104.62312 | 33113 ft | 469 kts | 183° |
| 2026-04-21 22:50 | 31.99478 | 104.62668 | 33109 ft | 468 kts | 183° |
| 2026-04-21 22:50 | 31.92928 | 104.63022 | 33113 ft | 469 kts | 183° |
| 2026-04-21 22:51 | 31.86409 | 104.63375 | 33105 ft | 470 kts | 182° |
| 2026-04-21 22:51 | 31.79888 | 104.63728 | 33106 ft | 470 kts | 183° |
| 2026-04-21 22:52 | 31.73370 | 104.64027 | 33105 ft | 469 kts | 184° |
| 2026-04-21 22:52 | 31.66863 | 104.64275 | 33106 ft | 469 kts | 183° |
| 2026-04-21 22:53 | 31.60346 | 104.64530 | 33104 ft | 469 kts | 183° |
| 2026-04-21 22:53 | 31.53786 | 104.64789 | 33102 ft | 470 kts | 183° |
| 2026-04-21 22:54 | 31.47267 | 104.65047 | 33104 ft | 470 kts | 183° |
| 2026-04-21 22:54 | 31.40732 | 104.65306 | 33099 ft | 470 kts | 183° |
| 2026-04-21 22:55 | 31.34194 | 104.65565 | 33100 ft | 470 kts | 183° |
| 2026-04-21 22:55 | 31.27668 | 104.65823 | 33098 ft | 470 kts | 183° |
| 2026-04-21 22:56 | 31.21138 | 104.66080 | 33099 ft | 470 kts | 183° |
| 2026-04-21 22:56 | 31.14611 | 104.66336 | 33095 ft | 470 kts | 183° |
| 2026-04-21 22:57 | 31.08031 | 104.66594 | 33095 ft | 471 kts | 182° |
| 2026-04-21 22:57 | 31.01486 | 104.67015 | 33099 ft | 473 kts | 179° |
| 2026-04-21 22:58 | 30.94941 | 104.67825 | 33097 ft | 474 kts | 179° |
| 2026-04-21 22:58 | 30.88381 | 104.68568 | 33095 ft | 475 kts | 179° |
| 2026-04-21 22:59 | 30.81806 | 104.69312 | 33096 ft | 475 kts | 179° |
| 2026-04-21 22:59 | 30.75240 | 104.70053 | 33094 ft | 475 kts | 179° |
| 2026-04-21 23:00 | 30.68667 | 104.70793 | 33095 ft | 476 kts | 179° |
| 2026-04-21 23:00 | 30.62052 | 104.71537 | 33093 ft | 475 kts | 178° |
| 2026-04-21 23:01 | 30.55480 | 104.72275 | 33093 ft | 475 kts | 178° |
| 2026-04-21 23:01 | 30.48904 | 104.73007 | 33094 ft | 475 kts | 178° |
| 2026-04-21 23:02 | 30.42330 | 104.73739 | 33093 ft | 475 kts | 178° |
| 2026-04-21 23:02 | 30.35759 | 104.74469 | 33093 ft | 476 kts | 178° |
| 2026-04-21 23:03 | 30.29173 | 104.75205 | 33092 ft | 476 kts | 178° |
| 2026-04-21 23:03 | 30.22548 | 104.75942 | 33092 ft | 476 kts | 178° |
| 2026-04-21 23:04 | 30.15962 | 104.76671 | 33092 ft | 476 kts | 178° |
| 2026-04-21 23:04 | 30.09372 | 104.77400 | 33091 ft | 476 kts | 178° |
| 2026-04-21 23:05 | 30.02789 | 104.78127 | 33091 ft | 476 kts | 178° |
| 2026-04-21 23:05 | 29.96199 | 104.78855 | 33091 ft | 478 kts | 178° |
| 2026-04-21 23:06 | 29.89544 | 104.79589 | 33090 ft | 483 kts | 178° |
| 2026-04-21 23:06 | 29.82864 | 104.80324 | 33089 ft | 483 kts | 178° |
| 2026-04-21 23:07 | 29.76146 | 104.81063 | 33089 ft | 483 kts | 178° |
| 2026-04-21 23:07 | 29.69458 | 104.81798 | 33088 ft | 484 kts | 179° |
| 2026-04-21 23:08 | 29.62765 | 104.82537 | 33099 ft | 484 kts | 179° |
| 2026-04-21 23:08 | 29.56065 | 104.83275 | 33103 ft | 485 kts | 179° |
| 2026-04-21 23:09 | 29.49358 | 104.84009 | 33099 ft | 485 kts | 179° |
| 2026-04-21 23:09 | 29.42641 | 104.84743 | 33097 ft | 486 kts | 179° |
| 2026-04-21 23:10 | 29.35867 | 104.85509 | 33091 ft | 488 kts | 175° |
| 2026-04-21 23:10 | 29.29314 | 104.87730 | 33097 ft | 498 kts | 163° |
| 2026-04-21 23:11 | 29.26130 | 104.89308 | 33206 ft | 501 kts | 160° |
| 2026-04-21 23:11 | 29.22964 | 104.90998 | 33435 ft | 501 kts | 160° |
| 2026-04-21 23:11 | 29.19793 | 104.92635 | 33631 ft | 502 kts | 161° |
| 2026-04-21 23:11 | 29.16592 | 104.94249 | 33772 ft | 504 kts | 161° |
| 2026-04-21 23:12 | 29.13393 | 104.95859 | 33986 ft | 503 kts | 161° |
| 2026-04-21 23:12 | 29.10199 | 104.97475 | 34161 ft | 504 kts | 161° |
| 2026-04-21 23:12 | 29.03770 | 105.00721 | 34374 ft | 508 kts | 161° |
| 2026-04-21 23:13 | 29.00547 | 105.02345 | 34517 ft | 508 kts | 162° |
| 2026-04-21 23:13 | 28.97309 | 105.03975 | 34613 ft | 509 kts | 162° |
| 2026-04-21 23:13 | 28.94031 | 105.05627 | 34722 ft | 511 kts | 162° |
| 2026-04-21 23:13 | 28.90778 | 105.07257 | 34853 ft | 511 kts | 162° |
| 2026-04-21 23:14 | 28.84266 | 105.10511 | 35035 ft | 513 kts | 162° |
| 2026-04-21 23:14 | 28.77722 | 105.13796 | 35086 ft | 516 kts | 161° |
| 2026-04-21 23:15 | 28.71331 | 105.17547 | 35089 ft | 519 kts | 158° |
| 2026-04-21 23:15 | 28.64968 | 105.21470 | 35089 ft | 521 kts | 158° |
| 2026-04-21 23:16 | 28.59616 | 105.24721 | 35089 ft | 521 kts | 158° |
| 2026-04-21 23:16 | 28.53217 | 105.28587 | 35089 ft | 522 kts | 158° |
| 2026-04-21 23:17 | 28.46803 | 105.32455 | 35089 ft | 523 kts | 158° |
| 2026-04-21 23:17 | 28.40386 | 105.36339 | 35089 ft | 524 kts | 158° |
| 2026-04-21 23:18 | 28.33845 | 105.39938 | 35090 ft | 522 kts | 163° |
| 2026-04-21 23:18 | 28.27140 | 105.43027 | 35090 ft | 519 kts | 165° |
| 2026-04-21 23:19 | 28.20423 | 105.46157 | 35091 ft | 520 kts | 164° |
| 2026-04-21 23:19 | 28.13746 | 105.49292 | 35091 ft | 521 kts | 164° |
| 2026-04-21 23:20 | 28.07053 | 105.52433 | 35092 ft | 521 kts | 165° |
| 2026-04-21 23:20 | 28.00148 | 105.54545 | 35093 ft | 512 kts | 177° |
| 2026-04-21 23:21 | 27.93140 | 105.55571 | 35093 ft | 507 kts | 180° |
| 2026-04-21 23:21 | 27.86154 | 105.56624 | 35094 ft | 507 kts | 179° |
| 2026-04-21 23:22 | 27.79155 | 105.58059 | 35109 ft | 515 kts | 169° |
| 2026-04-21 23:22 | 27.72455 | 105.61135 | 35107 ft | 526 kts | 161° |
| 2026-04-21 23:23 | 27.65893 | 105.64848 | 35095 ft | 530 kts | 160° |
| 2026-04-21 23:23 | 27.59299 | 105.68552 | 35096 ft | 531 kts | 160° |
| 2026-04-21 23:24 | 27.52685 | 105.72208 | 35096 ft | 530 kts | 160° |
| 2026-04-21 23:24 | 27.46069 | 105.75859 | 35096 ft | 531 kts | 160° |
| 2026-04-21 23:25 | 27.39442 | 105.79517 | 35097 ft | 532 kts | 160° |
| 2026-04-21 23:25 | 27.32762 | 105.83188 | 35096 ft | 532 kts | 161° |
| 2026-04-21 23:26 | 27.26122 | 105.86844 | 35096 ft | 532 kts | 161° |
| 2026-04-21 23:26 | 27.19473 | 105.90484 | 35096 ft | 533 kts | 161° |
| 2026-04-21 23:27 | 27.12805 | 105.94127 | 35096 ft | 534 kts | 161° |
| 2026-04-21 23:27 | 27.06126 | 105.97775 | 35096 ft | 536 kts | 160° |
| 2026-04-21 23:28 | 27.02989 | 106.00072 | 35106 ft | 546 kts | 146° |
| 2026-04-21 23:28 | 27.00232 | 106.02997 | 35098 ft | 548 kts | 139° |
| 2026-04-21 23:28 | 26.95306 | 106.09605 | 35097 ft | 558 kts | 131° |
| 2026-04-21 23:29 | 26.90690 | 106.16666 | 35096 ft | 559 kts | 130° |
| 2026-04-21 23:29 | 26.86041 | 106.23632 | 35095 ft | 559 kts | 130° |
| 2026-04-21 23:30 | 26.81354 | 106.30573 | 35095 ft | 560 kts | 131° |
| 2026-04-21 23:30 | 26.76674 | 106.37536 | 35095 ft | 560 kts | 130° |
| 2026-04-21 23:31 | 26.71980 | 106.44474 | 35094 ft | 560 kts | 131° |
| 2026-04-21 23:31 | 26.67289 | 106.51414 | 35094 ft | 561 kts | 130° |
| 2026-04-21 23:32 | 26.62548 | 106.58394 | 35094 ft | 561 kts | 131° |
| 2026-04-21 23:32 | 26.57825 | 106.65316 | 35094 ft | 561 kts | 131° |
| 2026-04-21 23:33 | 26.53095 | 106.72241 | 35094 ft | 561 kts | 131° |
| 2026-04-21 23:33 | 26.48183 | 106.78954 | 35094 ft | 558 kts | 137° |
| 2026-04-21 23:34 | 26.42687 | 106.84998 | 35094 ft | 554 kts | 141° |
| 2026-04-21 23:34 | 26.37160 | 106.90971 | 35094 ft | 554 kts | 140° |
| 2026-04-21 23:35 | 26.31636 | 106.97019 | 35093 ft | 554 kts | 140° |
| 2026-04-21 23:35 | 26.26154 | 107.03025 | 35092 ft | 554 kts | 140° |
| 2026-04-21 23:36 | 26.20669 | 107.09044 | 35091 ft | 554 kts | 140° |
| 2026-04-21 23:36 | 26.15183 | 107.15055 | 35091 ft | 554 kts | 139° |
| 2026-04-21 23:37 | 26.09693 | 107.21063 | 35089 ft | 554 kts | 139° |
| 2026-04-21 23:37 | 26.04178 | 107.27093 | 35088 ft | 553 kts | 139° |
| 2026-04-21 23:38 | 25.98706 | 107.33100 | 35084 ft | 555 kts | 139° |
| 2026-04-21 23:38 | 25.93204 | 107.39129 | 35084 ft | 557 kts | 139° |
| 2026-04-21 23:39 | 25.87697 | 107.45162 | 35081 ft | 556 kts | 139° |
| 2026-04-21 23:39 | 25.82178 | 107.51165 | 35078 ft | 556 kts | 139° |
| 2026-04-21 23:40 | 25.76663 | 107.57151 | 35064 ft | 556 kts | 139° |
| 2026-04-21 23:40 | 25.71138 | 107.63141 | 35059 ft | 556 kts | 139° |
| 2026-04-21 23:41 | 25.65597 | 107.69189 | 35054 ft | 556 kts | 139° |
| 2026-04-21 23:41 | 25.60112 | 107.75214 | 35050 ft | 556 kts | 139° |
| 2026-04-21 23:42 | 25.54611 | 107.81220 | 35045 ft | 556 kts | 139° |
| 2026-04-21 23:42 | 25.48780 | 107.86764 | 35032 ft | 549 kts | 155° |
| 2026-04-21 23:43 | 25.41809 | 107.89946 | 35037 ft | 540 kts | 166° |
| 2026-04-21 23:43 | 25.34735 | 107.92548 | 35031 ft | 535 kts | 167° |
| 2026-04-21 23:44 | 25.27686 | 107.95154 | 35001 ft | 535 kts | 167° |
| 2026-04-21 23:44 | 25.20581 | 107.97784 | 34993 ft | 536 kts | 167° |
| 2026-04-21 23:45 | 25.09966 | 108.01672 | 34984 ft | 535 kts | 167° |
| 2026-04-21 23:46 | 25.02904 | 108.04206 | 34980 ft | 534 kts | 167° |
| 2026-04-21 23:46 | 24.99454 | 108.05726 | 34976 ft | 539 kts | 156° |
| 2026-04-21 23:46 | 24.96284 | 108.07955 | 34980 ft | 545 kts | 148° |
| 2026-04-21 23:47 | 24.90247 | 108.13059 | 34970 ft | 549 kts | 145° |
| 2026-04-21 23:47 | 24.84227 | 108.18243 | 34966 ft | 550 kts | 145° |
| 2026-04-21 23:48 | 24.78169 | 108.23450 | 34961 ft | 550 kts | 145° |
| 2026-04-21 23:48 | 24.72154 | 108.28617 | 34957 ft | 550 kts | 145° |
| 2026-04-21 23:49 | 24.66132 | 108.33785 | 34954 ft | 550 kts | 145° |
| 2026-04-21 23:49 | 24.60118 | 108.38940 | 34954 ft | 549 kts | 145° |
| 2026-04-21 23:50 | 24.54107 | 108.44086 | 34950 ft | 549 kts | 145° |
| 2026-04-21 23:50 | 24.48084 | 108.49236 | 34948 ft | 549 kts | 145° |
| 2026-04-21 23:51 | 24.42023 | 108.54412 | 34945 ft | 549 kts | 145° |
| 2026-04-21 23:51 | 24.36000 | 108.59549 | 34941 ft | 549 kts | 145° |
| 2026-04-21 23:52 | 24.29980 | 108.64677 | 34937 ft | 548 kts | 145° |
| 2026-04-21 23:52 | 24.23967 | 108.69792 | 34935 ft | 549 kts | 145° |
| 2026-04-21 23:53 | 24.17948 | 108.74908 | 34932 ft | 548 kts | 145° |
| 2026-04-21 23:53 | 24.11938 | 108.80009 | 34930 ft | 548 kts | 145° |
| 2026-04-21 23:54 | 24.05889 | 108.85136 | 34927 ft | 547 kts | 145° |
| 2026-04-21 23:54 | 23.99877 | 108.90227 | 34925 ft | 547 kts | 145° |
| 2026-04-21 23:55 | 23.93887 | 108.95310 | 34923 ft | 545 kts | 144° |
| 2026-04-21 23:55 | 23.87904 | 109.00361 | 34921 ft | 544 kts | 144° |
| 2026-04-21 23:56 | 23.81922 | 109.05401 | 34920 ft | 543 kts | 144° |
| 2026-04-21 23:56 | 23.76154 | 109.10692 | 34909 ft | 545 kts | 131° |
| 2026-04-21 23:56 | 23.74034 | 109.14107 | 34914 ft | 546 kts | 117° |
| 2026-04-21 23:57 | 23.72564 | 109.17921 | 34926 ft | 547 kts | 110° |
| 2026-04-21 23:57 | 23.70483 | 109.25935 | 34920 ft | 545 kts | 101° |
| 2026-04-21 23:58 | 23.69003 | 109.34028 | 34919 ft | 544 kts | 100° |
| 2026-04-21 23:58 | 23.67406 | 109.42082 | 34921 ft | 544 kts | 101° |
| 2026-04-21 23:59 | 23.65771 | 109.50115 | 34923 ft | 544 kts | 101° |
| 2026-04-21 23:59 | 23.64132 | 109.58151 | 34925 ft | 544 kts | 101° |
| 2026-04-22 00:00 | 23.62481 | 109.66191 | 34926 ft | 544 kts | 101° |
| 2026-04-22 00:00 | 23.60809 | 109.74258 | 34927 ft | 544 kts | 101° |
| 2026-04-22 00:01 | 23.59153 | 109.82284 | 34929 ft | 544 kts | 101° |
| 2026-04-22 00:01 | 23.57495 | 109.90315 | 34930 ft | 544 kts | 101° |
| 2026-04-22 00:02 | 23.55830 | 109.98333 | 34931 ft | 543 kts | 101° |
| 2026-04-22 00:02 | 23.54178 | 110.06348 | 34932 ft | 543 kts | 101° |
| 2026-04-22 00:03 | 23.52505 | 110.14351 | 34932 ft | 542 kts | 102° |
| 2026-04-22 00:03 | 23.50810 | 110.22400 | 34934 ft | 542 kts | 102° |
| 2026-04-22 00:04 | 23.49126 | 110.30386 | 34933 ft | 542 kts | 102° |
| 2026-04-22 00:04 | 23.47457 | 110.38377 | 34932 ft | 542 kts | 101° |
| 2026-04-22 00:05 | 23.45855 | 110.46377 | 34932 ft | 541 kts | 101° |
| 2026-04-22 00:05 | 23.44223 | 110.54357 | 34933 ft | 541 kts | 101° |
| 2026-04-22 00:06 | 23.42584 | 110.62342 | 34935 ft | 541 kts | 102° |
| 2026-04-22 00:06 | 23.40947 | 110.70309 | 34935 ft | 540 kts | 102° |
| 2026-04-22 00:07 | 23.39265 | 110.78319 | 34936 ft | 540 kts | 102° |
| 2026-04-22 00:07 | 23.37603 | 110.86277 | 34937 ft | 540 kts | 102° |
| 2026-04-22 00:08 | 23.35917 | 110.94235 | 34938 ft | 540 kts | 102° |
| 2026-04-22 00:08 | 23.34227 | 111.02166 | 34954 ft | 539 kts | 102° |
| 2026-04-22 00:09 | 23.32532 | 111.10104 | 34955 ft | 539 kts | 102° |
| 2026-04-22 00:09 | 23.30866 | 111.18046 | 34955 ft | 539 kts | 102° |
| 2026-04-22 00:10 | 23.29530 | 111.24718 | 34955 ft | 539 kts | 102° |
| 2026-04-22 00:10 | 23.28045 | 111.32704 | 34955 ft | 539 kts | 100° |
| 2026-04-22 00:11 | 23.26626 | 111.40702 | 34956 ft | 539 kts | 100° |
| 2026-04-22 00:11 | 23.25200 | 111.48688 | 34956 ft | 539 kts | 100° |
| 2026-04-22 00:12 | 23.23758 | 111.56737 | 34955 ft | 539 kts | 100° |